Gütersloh, Germany

09:24 PM CET am 06. Februar 2016 (GMT +0100)
GT-Pavenstaedt | | Change Station
CLOSE
Current Station
Persönliche Wetterstationen
Location: Gütersloh, NORDRHEIN-WESTFALEN
Höhe: 240 ft
Wetterstationen in der Umgebung

Höhe 240 ft 51.91 °N, 8.35 °E | Updated 15 seconds ago

Clear
Heiter
47.3 °F
gefühlte 47 °F
N
2.0
Wind Wechselnd Wind aus Süd-Südwest
Gusts 2.5 mph

Heute
Max. -- | schwach -- °F
--% Regenrisiko
Gestern
Max. -- | schwach -- °F
Precip. -- inch
Druck 29.62 inch
Sichtweite -9999.0 Meilen
Wolken
Windchill 47 °F
Taupunkt 39 °F
Feuchtigkeit 73%
Regen 0.00 inch
Schneehöhe Nicht verfügbar..
7:59 AM 5:23 PM
Letztes Viertel, 4% visible
METAR EDDG 062020Z 14008KT CAVOK 09/04 Q1003 NOSIG
Druck 29.62 inch
Sichtweite -9999.0 Meilen
Wolken
Windchill 47 °F
Taupunkt 39 °F
Feuchtigkeit 73%
Regen 0.00 inch
Schneehöhe Nicht verfügbar..
7:59 AM 5:23 PM
Letztes Viertel, 4% visible
METAR EDDG 062020Z 14008KT CAVOK 09/04 Q1003 NOSIG

10-Day Weather Forecast

Almanac

Astronomie

Feb. 06, 2016 Aufgang Untergang
Genaue Zeit
Bürgerliche Dämmerung
Nautische Dämmerung
Astronomische Dämmerung
Mond
Länge des sichtbaren Lichts
Tageslänge
Tomorrow will be .
, % of the Moon is Illuminated

Heutige Rekorde

Country Highs Country Lows

Community

WunderPhotos

Upload Photos

1,891,045 Fotos hochgeladen!

WunderBlog® & News

Nearby

Luftqualität

  Luftqualität LQ Index Schadstoff
Not available.

Schneehöhe

Station Depth Höhe

Erdbebenaktivität

Stadt Distance Mag. Time & Date
Minimum magnitude displayed is 2.5.

küstennahe Wassertemperaturen

Ort Temperatur

Stations

Wetterstationen in der Umgebung

Stationsstandort Temp. Windchill Taupunkt Feuchtigkeit Wind Precip. Höhe Aktualisiert Art